Thornton, Idaho
Current Conditions -  °F | °C
As of 4:53 AM on Sunday 25 Jan 2015 (Local Time) from KRXE Reporting Station
Haze Haze  
Wind Chill: 26°   Ceiling: 300
Heat Index: 26°   Visibility: 2mi
Dew Point: 26°   Wind: 3mph
Humidity: 100%   Direction: 40°NE
Pressure: 30.44"   Gusts: NA
Location:  43.7568°N, 111.624°W
Report Text: KRXE 251153Z AUTO 04003KT 2SM BR OVC003 M03/M03 A3044 RMK AO2 SLP349 I1000 I6000 T10331033 11033 21039 55003
Loading
Personal Weather Stations






























Interactive Weather Map New forecast layout! Learn more

10-Day Weather Forecast

Advertisements
Track Severe Weather on mobile